Time;durP1;ratioP1;P1;durP2;ratioP2;P2;SDS_P1;SDS_P2;PMS_P1;PMS_P2;Temp;Humidity;BMP_temperature;BMP_pressure;BME280_temperature;BME280_humidity;BME280_pressure;Samples;Min_cycle;Max_cycle;Signal;HPM_P1;HPM_P2
2024/01/12 00:02:21;;;;;;;7.00;5.03;;;;;;;18.15;34.07;103289.56;4969957;28;20463;-72
2024/01/12 00:04:47;;;;;;;7.35;5.45;;;;;;;18.03;34.33;103276.88;4971251;28;20303;-73
2024/01/12 00:07:12;;;;;;;7.18;5.15;;;;;;;18.13;34.00;103296.66;4971239;28;20034;-73
2024/01/12 00:09:38;;;;;;;8.45;5.15;;;;;;;18.03;34.19;103283.00;4970957;28;20031;-73
2024/01/12 00:12:03;;;;;;;7.70;5.10;;;;;;;18.09;34.47;103295.94;4971201;28;20033;-73
2024/01/12 00:14:29;;;;;;;9.35;4.85;;;;;;;18.09;34.25;103290.66;4970847;28;20041;-73
2024/01/12 00:16:54;;;;;;;7.97;4.95;;;;;;;18.08;33.98;103309.19;4970955;28;20027;-72
2024/01/12 00:19:20;;;;;;;7.45;5.25;;;;;;;17.97;34.09;103288.53;4970949;28;20100;-73
2024/01/12 00:21:46;;;;;;;6.72;4.78;;;;;;;17.95;34.05;103285.13;4970796;28;20030;-73
2024/01/12 00:24:11;;;;;;;7.80;5.57;;;;;;;17.93;34.25;103274.63;4970696;28;20148;-73
2024/01/12 00:26:36;;;;;;;7.35;5.20;;;;;;;18.01;34.09;103294.53;4970158;28;20117;-74
2024/01/12 00:29:02;;;;;;;7.45;5.13;;;;;;;18.02;34.28;103301.53;4970007;28;20395;-74
2024/01/12 00:31:27;;;;;;;6.88;4.63;;;;;;;17.90;33.92;103287.94;4970652;28;20485;-72
2024/01/12 00:33:52;;;;;;;8.48;4.70;;;;;;;17.89;34.24;103272.19;4969996;28;20089;-73
2024/01/12 00:36:18;;;;;;;7.55;5.05;;;;;;;17.98;34.22;103297.34;4969779;28;20093;-72
2024/01/12 00:38:43;;;;;;;7.38;5.10;;;;;;;17.94;34.32;103289.53;4969997;28;20150;-73
2024/01/12 00:41:08;;;;;;;7.65;5.35;;;;;;;17.91;34.34;103288.78;4969858;28;20407;-73
2024/01/12 00:43:34;;;;;;;7.63;5.05;;;;;;;17.97;33.76;103299.09;4969505;28;20039;-73
2024/01/12 00:45:59;;;;;;;7.80;5.13;;;;;;;17.95;33.91;103299.16;4969835;28;20054;-73
2024/01/12 00:48:25;;;;;;;8.35;5.70;;;;;;;17.94;33.76;103294.81;4969698;28;20081;-73
2024/01/12 00:50:50;;;;;;;8.05;5.30;;;;;;;17.73;33.77;103267.50;4970319;28;20480;-73
2024/01/12 00:53:15;;;;;;;7.13;5.03;;;;;;;17.91;33.82;103302.88;4969937;28;20039;-73
2024/01/12 00:55:41;;;;;;;8.77;5.40;;;;;;;17.87;33.93;103306.50;4970112;28;20058;-73
2024/01/12 00:58:06;;;;;;;8.00;5.03;;;;;;;17.90;33.74;103308.19;4970216;28;20127;-73
2024/01/12 01:00:31;;;;;;;9.82;5.57;;;;;;;17.90;33.84;103308.19;4970293;28;20038;-74
2024/01/12 01:02:57;;;;;;;7.68;5.50;;;;;;;17.80;33.88;103291.00;4969249;28;20039;-73
2024/01/12 01:05:23;;;;;;;7.30;5.20;;;;;;;17.72;33.66;103279.00;4969386;28;20026;-72
2024/01/12 01:07:48;;;;;;;7.22;5.50;;;;;;;17.80;33.70;103301.53;4969373;28;20388;-72
2024/01/12 01:10:13;;;;;;;7.27;5.37;;;;;;;17.85;33.62;103305.72;4970312;28;20077;-72
2024/01/12 01:12:39;;;;;;;7.93;5.53;;;;;;;17.75;33.78;103292.06;4969749;28;20292;-72
2024/01/12 01:15:06;;;;;;;7.20;4.90;;;;;;;17.65;33.97;103271.41;4969945;28;20114;-73
2024/01/12 01:17:32;;;;;;;7.90;5.22;;;;;;;17.84;33.86;103301.34;4969783;28;20035;-73
2024/01/12 01:19:58;;;;;;;7.68;5.20;;;;;;;17.74;33.90;103290.31;4970420;28;20030;-74
2024/01/12 01:22:23;;;;;;;8.15;5.53;;;;;;;17.76;33.56;103299.03;4970596;28;20030;-73
2024/01/12 01:24:49;;;;;;;7.45;5.18;;;;;;;17.74;33.42;103300.03;4970116;28;20030;-72
2024/01/12 01:27:14;;;;;;;7.15;4.97;;;;;;;17.71;33.82;103303.63;4970298;28;20027;-73
2024/01/12 01:29:39;;;;;;;7.85;5.65;;;;;;;17.77;33.90;103318.38;4971050;28;20046;-72
2024/01/12 01:32:05;;;;;;;7.80;5.25;;;;;;;17.74;33.58;103321.97;4970699;28;20027;-73
2024/01/12 01:34:30;;;;;;;7.45;5.18;;;;;;;17.77;33.78;103328.91;4970637;28;20039;-73
2024/01/12 01:37:01;;;;;;;7.70;5.32;;;;;;;17.76;33.81;103332.47;4970166;28;20528;-73
2024/01/12 01:39:27;;;;;;;8.32;5.85;;;;;;;17.66;33.74;103320.59;4970342;28;20395;-72
2024/01/12 01:41:52;;;;;;;7.20;5.25;;;;;;;17.75;33.33;103344.81;4969614;28;20035;-72
2024/01/12 01:44:17;;;;;;;8.05;5.80;;;;;;;17.66;33.30;103331.97;4970104;28;20130;-72
2024/01/12 01:46:43;;;;;;;8.85;5.80;;;;;;;17.71;33.45;103339.72;4969566;28;20416;-72
2024/01/12 01:49:09;;;;;;;8.52;5.70;;;;;;;17.72;33.66;103342.28;4970053;28;20031;-72
2024/01/12 01:51:34;;;;;;;8.68;5.85;;;;;;;17.64;33.63;103330.31;4970919;28;20031;-72
2024/01/12 01:53:59;;;;;;;8.23;5.55;;;;;;;17.67;33.35;103338.97;4970432;28;20049;-72
2024/01/12 01:56:25;;;;;;;8.80;5.38;;;;;;;17.70;33.75;103343.25;4970896;28;20035;-71
2024/01/12 01:58:51;;;;;;;7.80;5.60;;;;;;;17.70;33.30;103341.47;4970520;28;20031;-72
2024/01/12 02:01:17;;;;;;;8.95;5.47;;;;;;;17.69;33.43;103341.53;4970578;28;20158;-72
2024/01/12 02:03:43;;;;;;;7.45;5.50;;;;;;;17.68;33.33;103342.47;4970107;28;20043;-72
2024/01/12 02:06:09;;;;;;;7.80;5.88;;;;;;;17.68;33.25;103340.69;4970036;28;20034;-72
2024/01/12 02:08:35;;;;;;;9.05;5.97;;;;;;;17.62;33.37;103318.97;4970067;28;20027;-73
2024/01/12 02:11:01;;;;;;;8.10;5.60;;;;;;;17.55;33.57;103313.94;4968936;28;20120;-73
2024/01/12 02:13:26;;;;;;;7.88;5.65;;;;;;;17.54;33.34;103306.09;4968994;28;20090;-73
2024/01/12 02:15:52;;;;;;;7.95;5.47;;;;;;;17.64;33.62;103320.66;4969785;28;20085;-73
2024/01/12 02:18:17;;;;;;;7.07;5.05;;;;;;;17.63;33.36;103315.44;4969787;28;20030;-72
2024/01/12 02:20:47;;;;;;;8.23;5.90;;;;;;;17.55;33.31;103292.00;4970628;28;20398;-73
2024/01/12 02:23:13;;;;;;;8.20;5.72;;;;;;;17.57;33.47;103304.19;4970626;28;20041;-73
2024/01/12 02:25:38;;;;;;;7.95;5.47;;;;;;;17.51;33.53;103298.31;4968822;28;20030;-73
2024/01/12 02:28:04;;;;;;;8.52;5.47;;;;;;;17.52;33.50;103303.53;4970044;28;20065;-72
2024/01/12 02:30:30;;;;;;;7.72;5.43;;;;;;;17.62;33.33;103325.09;4969962;28;20042;-73
2024/01/12 02:32:55;;;;;;;9.98;6.30;;;;;;;17.61;33.08;103318.13;4970255;28;20034;-73
2024/01/12 02:35:20;;;;;;;8.80;5.63;;;;;;;17.58;33.45;103320.88;4970394;28;20041;-73
2024/01/12 02:37:46;;;;;;;7.65;5.85;;;;;;;17.51;33.16;103307.06;4969390;28;20087;-72
2024/01/12 02:40:11;;;;;;;8.52;5.53;;;;;;;17.59;33.37;103317.31;4969767;28;20110;-73
2024/01/12 02:42:37;;;;;;;7.75;5.55;;;;;;;17.53;33.12;103317.56;4969913;28;20033;-73
2024/01/12 02:45:02;;;;;;;9.02;6.13;;;;;;;17.34;33.41;103291.06;4969366;28;20109;-73
2024/01/12 02:47:28;;;;;;;8.15;5.93;;;;;;;17.53;33.17;103321.06;4969552;28;20456;-72
2024/01/12 02:49:53;;;;;;;8.63;5.72;;;;;;;17.54;33.11;103327.19;4969561;28;20062;-72
2024/01/12 02:52:18;;;;;;;8.45;5.93;;;;;;;17.50;33.21;103309.75;4969770;28;20035;-72
2024/01/12 02:54:44;;;;;;;8.38;5.60;;;;;;;17.48;33.07;103294.03;4969375;28;20128;-73
2024/01/12 02:57:09;;;;;;;8.75;6.10;;;;;;;17.49;33.30;103295.72;4968842;28;20168;-72
2024/01/12 02:59:34;;;;;;;8.05;5.75;;;;;;;17.50;33.10;103301.84;4969267;28;20039;-74
2024/01/12 03:01:59;;;;;;;7.05;5.25;;;;;;;17.38;33.01;103275.06;4968939;28;21135;-74
2024/01/12 03:04:25;;;;;;;7.93;5.75;;;;;;;17.42;33.32;103275.81;4971823;28;20039;-72
2024/01/12 03:06:50;;;;;;;8.43;5.93;;;;;;;17.40;33.00;103273.25;4972788;28;20464;-74
2024/01/12 03:09:15;;;;;;;8.73;6.10;;;;;;;17.39;33.41;103274.16;4972594;28;20257;-72
2024/01/12 03:11:41;;;;;;;8.45;5.43;;;;;;;17.49;33.44;103294.88;4972590;28;20023;-71
2024/01/12 03:14:06;;;;;;;8.40;5.70;;;;;;;17.46;33.46;103287.94;4972528;28;20070;-72
2024/01/12 03:16:31;;;;;;;9.38;6.32;;;;;;;17.45;33.25;103291.53;4972894;28;20062;-72
2024/01/12 03:18:57;;;;;;;7.85;5.57;;;;;;;17.40;33.31;103289.06;4972216;28;20058;-72
2024/01/12 03:21:22;;;;;;;8.40;6.15;;;;;;;17.36;33.04;103286.59;4972305;28;20023;-72
2024/01/12 03:23:47;;;;;;;8.95;6.30;;;;;;;17.34;33.10;103272.59;4972689;28;20042;-74
2024/01/12 03:26:13;;;;;;;8.30;5.97;;;;;;;17.46;33.10;103289.72;4972948;28;20026;-73
2024/01/12 03:28:38;;;;;;;9.38;5.88;;;;;;;17.46;33.29;103289.72;4971430;28;20034;-72
2024/01/12 03:31:04;;;;;;;8.07;5.82;;;;;;;17.44;33.16;103294.22;4968669;28;20027;-73
2024/01/12 03:33:29;;;;;;;8.60;6.30;;;;;;;17.33;33.15;103277.03;4968718;28;20407;-73
2024/01/12 03:35:54;;;;;;;7.95;6.07;;;;;;;17.41;33.46;103296.03;4968913;28;20039;-72
2024/01/12 03:38:20;;;;;;;8.13;5.55;;;;;;;17.11;32.98;103239.28;4967310;28;20035;-72
2024/01/12 03:40:45;;;;;;;9.10;6.20;;;;;;;17.32;33.13;103280.59;4966752;28;20023;-73
2024/01/12 03:43:10;;;;;;;8.73;6.15;;;;;;;17.41;33.02;103290.75;4967524;28;20031;-73
2024/01/12 03:45:35;;;;;;;7.38;5.50;;;;;;;17.41;33.24;103292.53;4967111;28;20039;-73
2024/01/12 03:48:01;;;;;;;8.93;6.55;;;;;;;17.38;32.98;103293.50;4966454;28;20137;-73
2024/01/12 03:50:26;;;;;;;8.07;5.82;;;;;;;17.28;33.01;103264.97;4966658;28;20043;-73
2024/01/12 03:52:51;;;;;;;8.02;6.00;;;;;;;17.25;33.44;103262.44;4967062;28;20066;-73
2024/01/12 03:55:17;;;;;;;9.07;6.57;;;;;;;17.30;33.17;103266.59;4967010;28;20117;-73
2024/01/12 03:57:42;;;;;;;9.02;6.32;;;;;;;17.36;33.12;103274.28;4966856;28;20035;-73
2024/01/12 04:00:08;;;;;;;7.95;6.03;;;;;;;17.30;33.38;103265.75;4966620;28;20037;-73
2024/01/12 04:02:35;;;;;;;8.85;6.22;;;;;;;17.30;33.10;103269.25;4965686;28;20041;-73
2024/01/12 04:05:00;;;;;;;8.40;6.15;;;;;;;17.34;33.13;103275.25;4966965;28;20043;-72
2024/01/12 04:07:26;;;;;;;8.70;5.90;;;;;;;17.29;33.01;103258.75;4967231;28;20439;-72
2024/01/12 04:09:51;;;;;;;8.35;5.63;;;;;;;17.28;33.23;103257.06;4969641;28;20046;-72
2024/01/12 04:12:16;;;;;;;9.45;6.13;;;;;;;17.25;33.02;103255.41;4970396;28;20481;-72
2024/01/12 04:14:48;;;;;;;7.85;6.10;;;;;;;17.22;33.04;103252.88;4971096;28;20064;-72
2024/01/12 04:17:13;;;;;;;9.00;5.78;;;;;;;17.33;33.22;103268.28;4970397;28;20072;-72
2024/01/12 04:19:38;;;;;;;8.57;6.20;;;;;;;17.30;33.11;103265.75;4971105;28;20488;-72
2024/01/12 04:22:04;;;;;;;8.35;6.22;;;;;;;17.28;33.10;103263.19;4970235;28;20038;-72
2024/01/12 04:24:30;;;;;;;7.90;5.95;;;;;;;17.31;33.11;103273.59;4970513;28;20039;-72
2024/01/12 04:26:55;;;;;;;7.93;5.72;;;;;;;17.32;33.27;103266.53;4968629;28;21354;-72
2024/01/12 04:29:20;;;;;;;8.93;5.97;;;;;;;17.31;33.11;103276.25;4970321;28;20035;-73
2024/01/12 04:31:46;;;;;;;8.20;6.18;;;;;;;17.32;33.03;103274.44;4969788;28;20039;-73
2024/01/12 04:34:11;;;;;;;8.27;6.18;;;;;;;17.28;33.05;103267.59;4984311;28;20034;-74
2024/01/12 04:36:36;;;;;;;8.50;5.53;;;;;;;17.30;33.01;103279.78;4969818;28;20127;-73
2024/01/12 04:39:02;;;;;;;8.35;6.05;;;;;;;17.19;33.35;103268.81;4969770;28;20101;-75
2024/01/12 04:41:27;;;;;;;7.72;5.68;;;;;;;17.21;33.13;103266.97;4969516;28;20030;-73
2024/01/12 04:43:52;;;;;;;8.43;6.38;;;;;;;17.25;33.35;103276.47;4969577;28;20118;-73
2024/01/12 04:46:18;;;;;;;8.10;6.15;;;;;;;17.28;33.32;103279.00;4969525;28;20027;-73
2024/01/12 04:48:43;;;;;;;8.70;6.13;;;;;;;17.16;33.17;103261.88;4970052;28;20383;-73
2024/01/12 04:51:08;;;;;;;8.18;5.82;;;;;;;17.16;32.90;103261.03;4969368;28;20488;-73
2024/01/12 04:53:34;;;;;;;8.93;6.15;;;;;;;17.12;33.08;103262.91;4969475;28;20450;-73
2024/01/12 04:55:59;;;;;;;8.30;5.85;;;;;;;17.25;32.85;103292.28;4969561;28;20039;-73
2024/01/12 04:58:24;;;;;;;7.78;5.53;;;;;;;17.24;32.98;103287.94;4969656;28;20023;-72
2024/01/12 05:00:50;;;;;;;7.80;5.80;;;;;;;17.23;33.05;103281.81;4969180;28;20031;-73
2024/01/12 05:03:15;;;;;;;8.98;6.63;;;;;;;17.16;32.99;103263.66;4968672;28;20074;-73
2024/01/12 05:05:40;;;;;;;8.20;5.93;;;;;;;17.22;33.21;103287.13;4967980;28;20028;-73
2024/01/12 05:08:05;;;;;;;9.35;6.32;;;;;;;17.22;33.01;103285.34;4968690;28;20488;-73
2024/01/12 05:10:31;;;;;;;7.70;5.60;;;;;;;17.13;33.18;103271.69;4969511;28;20030;-73
2024/01/12 05:12:57;;;;;;;9.23;5.82;;;;;;;17.12;32.82;103267.34;4967251;28;20476;-74
2024/01/12 05:15:22;;;;;;;9.73;6.28;;;;;;;17.22;33.24;103268.69;4969103;28;20042;-73
2024/01/12 05:17:47;;;;;;;8.00;5.68;;;;;;;17.17;33.13;103260.13;4968695;28;20384;-73
2024/01/12 05:20:13;;;;;;;8.47;6.17;;;;;;;17.11;33.17;103244.53;4968014;28;20027;-73
2024/01/12 05:22:38;;;;;;;8.60;6.32;;;;;;;17.14;33.26;103239.16;4969303;28;20665;-73
2024/01/12 05:25:05;;;;;;;8.43;5.78;;;;;;;17.23;33.39;103259.88;4969128;28;20034;-73
2024/01/12 05:27:30;;;;;;;7.55;5.20;;;;;;;17.23;33.53;103262.50;4969213;28;20098;-73
2024/01/12 05:29:55;;;;;;;7.53;5.50;;;;;;;17.23;33.67;103263.38;4969302;28;20038;-74
2024/01/12 05:32:20;;;;;;;7.65;5.13;;;;;;;17.17;33.77;103244.31;4969417;28;20034;-73
2024/01/12 05:34:46;;;;;;;7.03;4.32;;;;;;;17.16;33.83;103240.78;4969303;28;20058;-73
2024/01/12 05:37:11;;;;;;;6.70;4.10;;;;;;;17.39;33.92;103265.41;4968731;28;20039;-73
2024/01/12 05:39:36;;;;;;;5.50;3.67;;;;;;;17.40;33.73;103257.44;4969690;28;20126;-72
2024/01/12 05:42:01;;;;;;;6.47;4.25;;;;;;;17.40;33.92;103246.88;4969035;28;20265;-72
2024/01/12 05:44:27;;;;;;;6.43;3.70;;;;;;;17.45;33.76;103244.06;4968853;28;20117;-72
2024/01/12 05:46:52;;;;;;;5.78;3.90;;;;;;;17.57;33.92;103258.50;4969122;28;20042;-72
2024/01/12 05:49:17;;;;;;;6.03;3.72;;;;;;;17.54;33.53;103254.22;4969395;28;20035;-72
2024/01/12 05:51:43;;;;;;;5.95;3.78;;;;;;;17.65;33.70;103266.13;4969005;28;20038;-73
2024/01/12 05:54:08;;;;;;;6.32;4.15;;;;;;;17.70;33.67;103272.91;4968718;28;20041;-72
2024/01/12 05:56:33;;;;;;;5.30;3.60;;;;;;;17.63;33.78;103260.06;4968875;28;20690;-73
2024/01/12 05:58:58;;;;;;;5.30;3.65;;;;;;;17.74;33.47;103271.88;4968797;28;20471;-72
2024/01/12 06:01:24;;;;;;;5.93;4.07;;;;;;;17.69;33.93;103268.56;4968997;28;20027;-73
2024/01/12 06:03:49;;;;;;;5.82;3.92;;;;;;;17.68;33.77;103258.09;4967218;28;20077;-73
2024/01/12 06:06:14;;;;;;;5.40;3.35;;;;;;;17.79;34.16;103274.31;4968543;28;20023;-72
2024/01/12 06:08:39;;;;;;;6.53;3.80;;;;;;;17.76;34.21;103264.75;4968028;28;20102;-73
2024/01/12 06:11:05;;;;;;;6.10;3.90;;;;;;;17.86;34.17;103286.31;4967776;28;20035;-72
2024/01/12 06:13:30;;;;;;;6.38;4.07;;;;;;;17.79;34.55;103268.19;4968619;28;20133;-73
2024/01/12 06:15:56;;;;;;;6.88;3.85;;;;;;;17.77;34.27;103269.09;4967942;28;20483;-73
2024/01/12 06:18:21;;;;;;;6.68;3.90;;;;;;;17.79;34.46;103262.91;4968404;28;20038;-73
2024/01/12 06:20:47;;;;;;;6.15;3.65;;;;;;;17.88;34.61;103281.00;4967576;28;20085;-72
2024/01/12 06:23:13;;;;;;;5.72;3.38;;;;;;;17.89;34.64;103278.31;4967935;28;20089;-74
2024/01/12 06:25:39;;;;;;;7.32;3.78;;;;;;;17.85;35.17;103279.34;4968557;28;20045;-72
2024/01/12 06:28:06;;;;;;;7.13;3.78;;;;;;;17.92;34.95;103293.16;4968390;28;20034;-74
2024/01/12 06:30:31;;;;;;;7.25;3.40;;;;;;;17.93;35.01;103292.25;4968079;28;20027;-73
2024/01/12 06:32:58;;;;;;;6.28;3.42;;;;;;;17.67;35.38;103257.19;4968048;28;20039;-73
2024/01/12 06:35:23;;;;;;;5.82;3.20;;;;;;;17.84;35.16;103276.75;4967581;28;20089;-72
2024/01/12 06:37:48;;;;;;;5.72;3.20;;;;;;;17.92;35.40;103301.06;4966996;28;20464;-73
2024/01/12 06:40:14;;;;;;;5.97;3.33;;;;;;;17.92;35.10;103306.34;4966882;28;20093;-72
2024/01/12 06:42:41;;;;;;;7.50;3.40;;;;;;;17.93;35.38;103308.06;4966796;28;20117;-73
2024/01/12 06:45:08;;;;;;;6.85;3.60;;;;;;;17.94;35.36;103308.00;4967682;28;20042;-73
2024/01/12 06:47:34;;;;;;;7.47;3.67;;;;;;;17.85;35.85;103284.63;4966737;28;20613;-72
2024/01/12 06:50:00;;;;;;;8.75;3.15;;;;;;;17.97;35.63;103301.72;4967060;28;20046;-73
2024/01/12 06:52:25;;;;;;;7.13;3.58;;;;;;;17.95;35.68;103304.44;4967634;28;20042;-72
2024/01/12 06:54:50;;;;;;;4.90;2.95;;;;;;;18.01;35.60;103307.72;4968153;28;20035;-72
2024/01/12 06:57:16;;;;;;;6.60;2.92;;;;;;;17.98;35.85;103300.81;4968105;28;20388;-73
2024/01/12 06:59:41;;;;;;;6.90;3.47;;;;;;;17.99;36.09;103301.66;4966040;28;20031;-72
2024/01/12 07:02:07;;;;;;;6.45;3.50;;;;;;;18.02;36.01;103314.72;4967045;28;20042;-72
2024/01/12 07:04:33;;;;;;;6.97;3.20;;;;;;;17.95;36.12;103300.94;4968112;28;20035;-72
2024/01/12 07:06:58;;;;;;;6.85;3.80;;;;;;;17.95;36.21;103293.03;4967430;28;20100;-72
2024/01/12 07:09:23;;;;;;;7.22;3.45;;;;;;;18.05;36.11;103311.97;4968004;28;20062;-72
2024/01/12 07:11:49;;;;;;;7.32;3.58;;;;;;;17.93;36.17;103282.53;4967671;28;20023;-73
2024/01/12 07:14:14;;;;;;;7.80;3.63;;;;;;;17.95;36.28;103282.47;4967763;28;20444;-73
2024/01/12 07:16:40;;;;;;;7.03;3.13;;;;;;;17.95;36.03;103285.13;4967385;28;20513;-73
2024/01/12 07:19:06;;;;;;;6.20;2.92;;;;;;;18.07;36.33;103311.00;4967670;28;20035;-74
2024/01/12 07:21:32;;;;;;;6.43;3.28;;;;;;;17.91;36.11;103281.75;4967655;28;20503;-73
2024/01/12 07:23:58;;;;;;;7.25;3.40;;;;;;;17.97;36.49;103280.63;4967526;28;20046;-74
2024/01/12 07:26:23;;;;;;;5.85;3.30;;;;;;;17.96;36.58;103276.28;4966726;28;20034;-74
2024/01/12 07:28:48;;;;;;;6.25;3.10;;;;;;;18.05;36.29;103288.22;4967051;28;20027;-74
2024/01/12 07:31:14;;;;;;;8.85;3.35;;;;;;;18.07;36.57;103289.88;4966170;28;20532;-73
2024/01/12 07:33:39;;;;;;;9.25;3.13;;;;;;;18.08;36.46;103286.31;4965443;28;20038;-73
2024/01/12 07:36:05;;;;;;;7.10;3.25;;;;;;;17.94;36.85;103257.88;4966420;28;20085;-73
2024/01/12 07:38:30;;;;;;;9.50;3.28;;;;;;;18.10;36.61;103279.19;4966641;28;20030;-73
2024/01/12 07:40:55;;;;;;;6.85;2.88;;;;;;;17.98;36.76;103261.25;4966875;28;20034;-73
2024/01/12 07:43:20;;;;;;;9.20;3.28;;;;;;;18.13;36.88;103289.63;4966572;28;20502;-72
2024/01/12 07:45:46;;;;;;;8.65;3.08;;;;;;;18.12;37.10;103282.63;4970996;28;20035;-72
2024/01/12 07:48:11;;;;;;;7.47;3.08;;;;;;;18.13;36.89;103279.06;4970217;28;20121;-72
2024/01/12 07:50:36;;;;;;;6.38;2.92;;;;;;;18.08;36.90;103274.91;4970224;28;20027;-73
2024/01/12 07:53:02;;;;;;;7.85;3.17;;;;;;;18.16;36.68;103295.69;4970098;28;20479;-73
2024/01/12 07:55:27;;;;;;;8.73;2.85;;;;;;;18.06;36.99;103277.59;4970568;28;20460;-74
2024/01/12 07:57:53;;;;;;;7.97;2.92;;;;;;;18.06;36.85;103274.97;4970048;28;20444;-74
2024/01/12 08:00:18;;;;;;;7.80;3.30;;;;;;;18.15;37.04;103284.28;4969876;28;20030;-73
2024/01/12 08:02:44;;;;;;;6.50;2.78;;;;;;;18.02;37.16;103257.53;4969489;28;20038;-74
2024/01/12 08:05:09;;;;;;;8.43;3.38;;;;;;;18.15;37.07;103286.03;4968872;28;20117;-74
2024/01/12 08:07:35;;;;;;;9.55;3.30;;;;;;;18.13;37.33;103278.19;4969954;28;20112;-74
2024/01/12 08:10:00;;;;;;;9.57;3.50;;;;;;;18.06;37.27;103259.13;4970032;28;20482;-73
2024/01/12 08:12:26;;;;;;;10.35;3.25;;;;;;;18.08;37.42;103272.25;4970613;28;20131;-73
2024/01/12 08:14:53;;;;;;;12.25;3.20;;;;;;;18.07;37.88;103274.06;4970834;28;20518;-73
2024/01/12 08:17:18;;;;;;;9.20;3.00;;;;;;;18.06;37.67;103272.31;4985092;28;20562;-76
2024/01/12 08:19:43;;;;;;;6.82;2.85;;;;;;;18.13;37.78;103283.47;4970790;28;20113;-75
2024/01/12 08:22:08;;;;;;;9.90;2.95;;;;;;;18.05;37.58;103273.22;4970550;28;20027;-75
2024/01/12 08:24:34;;;;;;;8.45;2.85;;;;;;;18.07;38.08;103274.06;4970280;28;20059;-75
2024/01/12 08:26:59;;;;;;;8.85;2.90;;;;;;;18.18;38.40;103285.91;4970301;28;20065;-75
2024/01/12 08:29:24;;;;;;;8.05;3.00;;;;;;;18.10;38.36;103268.66;4970633;28;20061;-74
2024/01/12 08:31:51;;;;;;;7.88;2.50;;;;;;;18.13;38.47;103278.19;4970253;28;20027;-74
2024/01/12 08:34:17;;;;;;;7.90;2.75;;;;;;;18.17;38.42;103290.34;4984598;28;20031;-75
2024/01/12 08:36:42;;;;;;;9.13;2.80;;;;;;;18.18;38.92;103281.47;4970483;28;20487;-73
2024/01/12 08:39:07;;;;;;;11.25;2.80;;;;;;;18.22;38.85;103284.88;4970406;28;20038;-73
2024/01/12 08:41:33;;;;;;;9.30;2.80;;;;;;;18.17;39.03;103285.06;4970089;28;20041;-73
2024/01/12 08:43:58;;;;;;;10.95;3.08;;;;;;;18.21;39.01;103298.97;4970101;28;20034;-73
2024/01/12 08:46:24;;;;;;;8.35;2.72;;;;;;;18.19;39.19;103293.78;4970251;28;20040;-73
2024/01/12 08:48:49;;;;;;;8.25;3.30;;;;;;;18.19;38.99;103290.28;4969659;28;20050;-73
2024/01/12 08:51:15;;;;;;;8.32;2.72;;;;;;;18.29;39.43;103310.06;4970293;28;20048;-74
2024/01/12 08:53:40;;;;;;;7.82;2.90;;;;;;;18.20;39.70;103292.84;4969250;28;20047;-74
2024/01/12 08:56:07;;;;;;;6.28;2.50;;;;;;;18.26;39.83;103286.44;4968520;28;20031;-73
2024/01/12 08:58:33;;;;;;;13.07;3.20;;;;;;;18.24;40.25;103288.28;4969254;28;20027;-74
2024/01/12 09:00:58;;;;;;;6.93;3.00;;;;;;;18.33;40.35;103297.63;4969218;28;20037;-73
2024/01/12 09:03:24;;;;;;;8.02;2.90;;;;;;;18.28;40.23;103288.09;4968687;28;20061;-74
2024/01/12 09:05:49;;;;;;;12.63;3.33;;;;;;;18.33;40.16;103294.97;4969408;28;20045;-73
2024/01/12 09:08:15;;;;;;;8.70;2.75;;;;;;;18.24;39.77;103290.94;4969078;28;20031;-73
2024/01/12 09:10:40;;;;;;;6.85;2.45;;;;;;;18.23;40.09;103295.38;4968888;28;20046;-74
2024/01/12 09:13:05;;;;;;;7.82;2.80;;;;;;;18.33;39.97;103302.88;4969412;28;20035;-73
2024/01/12 09:15:31;;;;;;;9.20;3.28;;;;;;;18.34;40.02;103305.47;4969325;28;20523;-74
2024/01/12 09:17:56;;;;;;;6.03;2.42;;;;;;;18.23;39.79;103276.00;4968674;28;20030;-74
2024/01/12 09:20:21;;;;;;;7.40;2.60;;;;;;;18.36;39.66;103297.44;4969114;28;20085;-74
2024/01/12 09:22:48;;;;;;;6.70;2.60;;;;;;;18.31;39.60;103284.47;4968668;28;20118;-74
2024/01/12 09:25:13;;;;;;;9.70;3.22;;;;;;;18.36;39.80;103293.03;4969095;28;20035;-74
2024/01/12 09:27:39;;;;;;;9.48;2.78;;;;;;;18.39;39.09;103299.97;4968053;28;20050;-71
2024/01/12 09:30:05;;;;;;;10.27;3.28;;;;;;;18.42;39.01;103299.81;4968563;28;20034;-75
2024/01/12 09:32:30;;;;;;;7.65;2.63;;;;;;;18.27;38.65;103275.81;4969013;28;20042;-77
2024/01/12 09:34:55;;;;;;;8.15;2.88;;;;;;;18.30;38.58;103278.31;4968002;28;20057;-77
2024/01/12 09:37:21;;;;;;;6.68;2.50;;;;;;;18.39;38.84;103295.56;4968770;28;20085;-76
2024/01/12 09:39:46;;;;;;;8.18;2.55;;;;;;;18.39;38.60;103306.13;4968576;28;20165;-75
2024/01/12 09:42:14;;;;;;;8.88;3.10;;;;;;;18.37;38.70;103310.59;4968261;28;20030;-74
2024/01/12 09:44:45;;;;;;;9.38;2.45;;;;;;;18.37;38.49;103307.94;4969188;28;20497;-73
2024/01/12 09:47:12;;;;;;;7.35;2.70;;;;;;;18.09;38.27;103259.00;4967581;28;20070;-74
2024/01/12 09:49:37;;;;;;;7.05;2.20;;;;;;;18.35;38.09;103301.88;4969004;28;20026;-75
2024/01/12 09:52:03;;;;;;;9.27;2.80;;;;;;;18.28;37.90;103293.38;4952052;28;20045;-74
2024/01/12 09:54:29;;;;;;;7.07;2.90;;;;;;;18.36;37.94;103303.59;4967968;28;20043;-72
2024/01/12 09:56:58;;;;;;;7.65;2.53;;;;;;;18.31;38.09;103293.25;4968232;28;20506;-73
2024/01/12 09:59:25;;;;;;;7.90;2.92;;;;;;;18.36;38.41;103300.97;4967937;28;20492;-75
2024/01/12 10:01:50;;;;;;;6.80;2.63;;;;;;;18.26;38.29;103284.69;4966917;28;20187;-75
2024/01/12 10:04:16;;;;;;;8.07;2.40;;;;;;;18.27;38.28;103283.72;4965816;28;20043;-76
2024/01/12 10:06:41;;;;;;;8.40;2.67;;;;;;;18.32;38.42;103291.44;4968011;28;20035;-75
2024/01/12 10:09:07;;;;;;;5.82;2.17;;;;;;;18.25;38.72;103272.38;4968323;28;20042;-74
2024/01/12 10:11:33;;;;;;;5.35;2.42;;;;;;;18.39;39.07;103294.69;4968097;28;20035;-76
2024/01/12 10:13:59;;;;;;;7.28;2.17;;;;;;;18.34;39.48;103275.53;4968182;28;20038;-73
2024/01/12 10:16:28;;;;;;;7.88;3.00;;;;;;;18.27;39.67;103267.91;4967504;28;20479;-75
2024/01/12 10:18:58;;;;;;;11.65;2.50;;;;;;;18.44;39.77;103296.19;4966780;28;20380;-74
2024/01/12 10:21:24;;;;;;;8.30;2.50;;;;;;;18.35;39.78;103283.41;4966216;28;20039;-74
2024/01/12 10:24:10;;;;;;;10.23;3.08;;;;;;;18.36;39.71;103293.03;4968160;28;20066;-74
2024/01/12 10:26:37;;;;;;;6.47;2.10;;;;;;;18.43;39.76;103296.28;4967951;28;20078;-76
2024/01/12 10:29:03;;;;;;;7.70;2.90;;;;;;;18.38;40.32;103282.41;4968566;28;20027;-74
2024/01/12 10:31:29;;;;;;;8.90;2.35;;;;;;;18.46;40.43;103302.25;4968113;28;20035;-76
2024/01/12 10:33:57;;;;;;;8.73;2.10;;;;;;;18.46;39.96;103296.97;4950946;28;20031;-73
2024/01/12 10:36:26;;;;;;;7.97;2.58;;;;;;;18.45;40.19;103294.41;4968238;28;20039;-75
2024/01/12 10:38:51;;;;;;;9.20;2.70;;;;;;;18.37;40.42;103280.69;4967981;28;20109;-74
2024/01/12 10:41:23;;;;;;;6.60;2.28;;;;;;;18.38;40.50;103275.34;4967839;28;20146;-74
2024/01/12 10:43:53;;;;;;;8.68;2.85;;;;;;;18.47;40.49;103284.66;4967643;28;20031;-74
2024/01/12 10:46:44;;;;;;;8.05;2.17;;;;;;;18.15;40.46;103225.34;4967866;28;20022;-74
2024/01/12 10:49:17;;;;;;;8.55;2.40;;;;;;;18.38;40.42;103264.78;4967139;28;20133;-75
2024/01/12 10:51:57;;;;;;;10.60;2.83;;;;;;;18.42;40.12;103265.50;4965783;28;20062;-73
2024/01/12 10:54:33;;;;;;;8.15;2.28;;;;;;;18.39;40.50;103265.63;4966775;28;20070;-73
2024/01/12 10:57:00;;;;;;;11.68;2.72;;;;;;;18.43;40.54;103267.22;4966911;28;20065;-74
2024/01/12 10:59:27;;;;;;;8.07;2.40;;;;;;;18.42;40.38;103257.59;4966999;28;20502;-75
2024/01/12 11:01:53;;;;;;;6.88;2.10;;;;;;;18.45;40.67;103266.25;4965763;28;20027;-72
2024/01/12 11:04:20;;;;;;;12.15;2.60;;;;;;;18.43;40.56;103260.16;4966242;28;20472;-74
2024/01/12 11:06:48;;;;;;;8.63;2.33;;;;;;;18.42;40.94;103254.94;4964889;28;20068;-71
2024/01/12 11:09:16;;;;;;;9.55;2.33;;;;;;;18.49;40.96;103265.16;4966666;28;20046;-78
2024/01/12 11:12:04;;;;;;;7.07;2.35;;;;;;;18.26;40.98;103225.72;4966808;28;20029;-71
2024/01/12 11:14:31;;;;;;;9.50;2.67;;;;;;;18.53;41.33;103265.88;4966499;28;20034;-73
2024/01/12 11:16:57;;;;;;;9.73;3.13;;;;;;;18.57;41.56;103271.91;4966526;28;20026;-73
2024/01/12 11:19:25;;;;;;;9.35;2.83;;;;;;;18.55;41.60;103253.47;4980407;28;20035;-73